sensor_id;sensor_type;location;lat;lon;timestamp;P1;durP1;ratioP1;P2;durP2;ratioP2
21168;SDS011;10742;51.816;8.662;2023-03-01T00:02:36;10.73;;;4.10;;
21168;SDS011;10742;51.816;8.662;2023-03-01T00:05:45;8.57;;;3.80;;
21168;SDS011;10742;51.816;8.662;2023-03-01T00:08:49;10.13;;;3.43;;
21168;SDS011;10742;51.816;8.662;2023-03-01T00:11:51;8.03;;;3.73;;
21168;SDS011;10742;51.816;8.662;2023-03-01T00:14:54;7.50;;;3.40;;
21168;SDS011;10742;51.816;8.662;2023-03-01T00:17:56;8.07;;;3.60;;
21168;SDS011;10742;51.816;8.662;2023-03-01T00:20:59;8.23;;;3.90;;
21168;SDS011;10742;51.816;8.662;2023-03-01T00:24:01;9.87;;;3.77;;
21168;SDS011;10742;51.816;8.662;2023-03-01T00:27:04;8.80;;;3.83;;
21168;SDS011;10742;51.816;8.662;2023-03-01T00:30:07;9.97;;;3.63;;
21168;SDS011;10742;51.816;8.662;2023-03-01T00:33:11;8.43;;;3.67;;
21168;SDS011;10742;51.816;8.662;2023-03-01T00:36:14;8.50;;;3.73;;
21168;SDS011;10742;51.816;8.662;2023-03-01T00:39:18;10.10;;;3.90;;
21168;SDS011;10742;51.816;8.662;2023-03-01T00:42:21;12.50;;;4.07;;
21168;SDS011;10742;51.816;8.662;2023-03-01T00:45:24;12.27;;;4.37;;
21168;SDS011;10742;51.816;8.662;2023-03-01T00:48:27;6.93;;;3.90;;
21168;SDS011;10742;51.816;8.662;2023-03-01T00:51:30;11.93;;;4.63;;
21168;SDS011;10742;51.816;8.662;2023-03-01T00:54:32;9.37;;;3.87;;
21168;SDS011;10742;51.816;8.662;2023-03-01T00:57:34;10.20;;;4.00;;
21168;SDS011;10742;51.816;8.662;2023-03-01T01:00:37;13.67;;;4.13;;
21168;SDS011;10742;51.816;8.662;2023-03-01T01:03:41;7.37;;;3.43;;
21168;SDS011;10742;51.816;8.662;2023-03-01T01:06:45;9.23;;;3.80;;
21168;SDS011;10742;51.816;8.662;2023-03-01T01:09:48;9.13;;;3.93;;
21168;SDS011;10742;51.816;8.662;2023-03-01T01:12:51;12.07;;;3.93;;
21168;SDS011;10742;51.816;8.662;2023-03-01T01:15:53;11.23;;;4.13;;
21168;SDS011;10742;51.816;8.662;2023-03-01T01:18:56;9.13;;;4.30;;
21168;SDS011;10742;51.816;8.662;2023-03-01T01:21:59;10.30;;;4.00;;
21168;SDS011;10742;51.816;8.662;2023-03-01T01:25:07;12.00;;;4.57;;
21168;SDS011;10742;51.816;8.662;2023-03-01T01:28:10;12.77;;;4.80;;
21168;SDS011;10742;51.816;8.662;2023-03-01T01:31:12;9.37;;;4.60;;
21168;SDS011;10742;51.816;8.662;2023-03-01T01:34:18;9.60;;;4.33;;
21168;SDS011;10742;51.816;8.662;2023-03-01T01:37:22;9.57;;;3.90;;
21168;SDS011;10742;51.816;8.662;2023-03-01T01:40:32;10.13;;;4.10;;
21168;SDS011;10742;51.816;8.662;2023-03-01T01:43:36;9.30;;;4.00;;
21168;SDS011;10742;51.816;8.662;2023-03-01T01:46:50;9.43;;;3.50;;
21168;SDS011;10742;51.816;8.662;2023-03-01T01:49:57;9.37;;;4.17;;
21168;SDS011;10742;51.816;8.662;2023-03-01T01:52:59;12.43;;;4.00;;
21168;SDS011;10742;51.816;8.662;2023-03-01T01:56:02;8.27;;;4.03;;
21168;SDS011;10742;51.816;8.662;2023-03-01T01:59:07;8.03;;;3.80;;
21168;SDS011;10742;51.816;8.662;2023-03-01T02:02:10;16.50;;;4.83;;
21168;SDS011;10742;51.816;8.662;2023-03-01T02:05:20;9.67;;;4.07;;
21168;SDS011;10742;51.816;8.662;2023-03-01T02:08:45;8.83;;;4.00;;
21168;SDS011;10742;51.816;8.662;2023-03-01T02:11:52;15.37;;;4.30;;
21168;SDS011;10742;51.816;8.662;2023-03-01T02:14:55;11.67;;;4.37;;
21168;SDS011;10742;51.816;8.662;2023-03-01T02:17:57;12.33;;;4.47;;
21168;SDS011;10742;51.816;8.662;2023-03-01T02:24:59;14.07;;;4.73;;
21168;SDS011;10742;51.816;8.662;2023-03-01T02:31:20;12.20;;;4.47;;
21168;SDS011;10742;51.816;8.662;2023-03-01T02:35:04;11.63;;;4.17;;
21168;SDS011;10742;51.816;8.662;2023-03-01T02:38:27;9.67;;;4.13;;
21168;SDS011;10742;51.816;8.662;2023-03-01T02:41:30;8.37;;;3.63;;
21168;SDS011;10742;51.816;8.662;2023-03-01T02:44:40;10.50;;;3.80;;
21168;SDS011;10742;51.816;8.662;2023-03-01T02:47:42;12.57;;;4.43;;
21168;SDS011;10742;51.816;8.662;2023-03-01T02:57:39;7.70;;;3.53;;
21168;SDS011;10742;51.816;8.662;2023-03-01T03:01:03;8.67;;;3.57;;
21168;SDS011;10742;51.816;8.662;2023-03-01T03:04:25;7.97;;;3.53;;
21168;SDS011;10742;51.816;8.662;2023-03-01T03:07:47;8.43;;;3.40;;
21168;SDS011;10742;51.816;8.662;2023-03-01T03:11:09;10.17;;;3.80;;
21168;SDS011;10742;51.816;8.662;2023-03-01T03:14:31;8.53;;;3.80;;
21168;SDS011;10742;51.816;8.662;2023-03-01T03:17:58;9.70;;;3.70;;
21168;SDS011;10742;51.816;8.662;2023-03-01T03:21:21;9.10;;;3.50;;
21168;SDS011;10742;51.816;8.662;2023-03-01T03:24:43;10.07;;;3.47;;
21168;SDS011;10742;51.816;8.662;2023-03-01T03:28:05;7.73;;;3.30;;
21168;SDS011;10742;51.816;8.662;2023-03-01T03:31:30;8.63;;;3.47;;
21168;SDS011;10742;51.816;8.662;2023-03-01T03:34:52;10.63;;;3.50;;
21168;SDS011;10742;51.816;8.662;2023-03-01T03:38:14;9.17;;;3.90;;
21168;SDS011;10742;51.816;8.662;2023-03-01T03:41:19;8.70;;;3.80;;
21168;SDS011;10742;51.816;8.662;2023-03-01T03:44:22;11.13;;;4.20;;
21168;SDS011;10742;51.816;8.662;2023-03-01T03:47:29;8.07;;;3.50;;
21168;SDS011;10742;51.816;8.662;2023-03-01T03:50:32;10.30;;;4.07;;
21168;SDS011;10742;51.816;8.662;2023-03-01T03:53:35;5.43;;;2.80;;
21168;SDS011;10742;51.816;8.662;2023-03-01T03:56:37;11.37;;;4.37;;
21168;SDS011;10742;51.816;8.662;2023-03-01T03:59:40;10.43;;;4.00;;
21168;SDS011;10742;51.816;8.662;2023-03-01T04:02:43;9.23;;;3.50;;
21168;SDS011;10742;51.816;8.662;2023-03-01T04:05:47;14.83;;;4.00;;
21168;SDS011;10742;51.816;8.662;2023-03-01T04:08:53;14.93;;;4.30;;
21168;SDS011;10742;51.816;8.662;2023-03-01T04:12:01;13.97;;;4.10;;
21168;SDS011;10742;51.816;8.662;2023-03-01T04:15:05;9.67;;;3.77;;
21168;SDS011;10742;51.816;8.662;2023-03-01T04:18:15;9.43;;;3.87;;
21168;SDS011;10742;51.816;8.662;2023-03-01T04:21:20;10.47;;;3.90;;
21168;SDS011;10742;51.816;8.662;2023-03-01T04:24:23;8.27;;;3.87;;
21168;SDS011;10742;51.816;8.662;2023-03-01T04:27:26;11.33;;;3.73;;
21168;SDS011;10742;51.816;8.662;2023-03-01T04:30:29;12.97;;;4.03;;
21168;SDS011;10742;51.816;8.662;2023-03-01T04:33:32;8.23;;;3.93;;
21168;SDS011;10742;51.816;8.662;2023-03-01T04:36:35;7.23;;;3.80;;
21168;SDS011;10742;51.816;8.662;2023-03-01T04:39:38;8.77;;;3.93;;
21168;SDS011;10742;51.816;8.662;2023-03-01T04:42:47;10.83;;;4.40;;
21168;SDS011;10742;51.816;8.662;2023-03-01T04:45:54;9.50;;;3.70;;
21168;SDS011;10742;51.816;8.662;2023-03-01T04:48:56;10.50;;;3.90;;
21168;SDS011;10742;51.816;8.662;2023-03-01T04:52:02;13.27;;;4.50;;
21168;SDS011;10742;51.816;8.662;2023-03-01T04:55:05;11.67;;;4.37;;
21168;SDS011;10742;51.816;8.662;2023-03-01T04:58:09;10.10;;;4.40;;
21168;SDS011;10742;51.816;8.662;2023-03-01T05:01:16;11.53;;;4.30;;
21168;SDS011;10742;51.816;8.662;2023-03-01T05:04:24;11.53;;;3.97;;
21168;SDS011;10742;51.816;8.662;2023-03-01T05:07:27;12.27;;;4.47;;
21168;SDS011;10742;51.816;8.662;2023-03-01T05:10:30;12.40;;;4.40;;
21168;SDS011;10742;51.816;8.662;2023-03-01T05:13:35;10.37;;;3.67;;
21168;SDS011;10742;51.816;8.662;2023-03-01T05:16:39;14.07;;;4.60;;
21168;SDS011;10742;51.816;8.662;2023-03-01T05:19:41;12.37;;;4.63;;
21168;SDS011;10742;51.816;8.662;2023-03-01T05:22:44;15.60;;;5.17;;
21168;SDS011;10742;51.816;8.662;2023-03-01T05:25:47;11.80;;;4.63;;
21168;SDS011;10742;51.816;8.662;2023-03-01T05:28:49;14.37;;;5.30;;
21168;SDS011;10742;51.816;8.662;2023-03-01T05:31:56;16.10;;;5.60;;
21168;SDS011;10742;51.816;8.662;2023-03-01T05:35:01;18.17;;;5.90;;
21168;SDS011;10742;51.816;8.662;2023-03-01T05:38:04;20.90;;;6.13;;
21168;SDS011;10742;51.816;8.662;2023-03-01T05:41:14;15.07;;;6.13;;
21168;SDS011;10742;51.816;8.662;2023-03-01T05:44:18;15.23;;;5.50;;
21168;SDS011;10742;51.816;8.662;2023-03-01T05:47:22;16.17;;;5.93;;
21168;SDS011;10742;51.816;8.662;2023-03-01T05:50:28;18.03;;;4.83;;
21168;SDS011;10742;51.816;8.662;2023-03-01T05:53:34;19.40;;;5.93;;
21168;SDS011;10742;51.816;8.662;2023-03-01T05:56:39;38.77;;;14.60;;
21168;SDS011;10742;51.816;8.662;2023-03-01T05:59:42;27.23;;;9.60;;
21168;SDS011;10742;51.816;8.662;2023-03-01T06:02:44;21.73;;;7.13;;
21168;SDS011;10742;51.816;8.662;2023-03-01T06:05:47;16.77;;;5.90;;
21168;SDS011;10742;51.816;8.662;2023-03-01T06:08:50;16.80;;;4.93;;
21168;SDS011;10742;51.816;8.662;2023-03-01T06:11:53;18.33;;;5.80;;
21168;SDS011;10742;51.816;8.662;2023-03-01T06:14:55;12.17;;;4.67;;
21168;SDS011;10742;51.816;8.662;2023-03-01T06:17:58;14.83;;;5.27;;
21168;SDS011;10742;51.816;8.662;2023-03-01T06:21:01;14.07;;;5.27;;
21168;SDS011;10742;51.816;8.662;2023-03-01T06:24:04;14.30;;;5.17;;
21168;SDS011;10742;51.816;8.662;2023-03-01T06:27:09;12.27;;;4.97;;
21168;SDS011;10742;51.816;8.662;2023-03-01T06:30:13;16.43;;;5.43;;
21168;SDS011;10742;51.816;8.662;2023-03-01T06:33:17;19.40;;;6.17;;
21168;SDS011;10742;51.816;8.662;2023-03-01T06:36:22;19.60;;;6.37;;
21168;SDS011;10742;51.816;8.662;2023-03-01T06:39:27;23.97;;;6.40;;
21168;SDS011;10742;51.816;8.662;2023-03-01T06:42:30;17.43;;;5.83;;
21168;SDS011;10742;51.816;8.662;2023-03-01T06:45:33;18.10;;;6.73;;
21168;SDS011;10742;51.816;8.662;2023-03-01T06:48:37;17.93;;;6.73;;
21168;SDS011;10742;51.816;8.662;2023-03-01T06:51:40;19.40;;;6.57;;
21168;SDS011;10742;51.816;8.662;2023-03-01T06:54:48;15.80;;;5.50;;
21168;SDS011;10742;51.816;8.662;2023-03-01T06:57:55;13.20;;;5.20;;
21168;SDS011;10742;51.816;8.662;2023-03-01T07:00:58;15.87;;;5.50;;
21168;SDS011;10742;51.816;8.662;2023-03-01T07:04:02;15.00;;;5.03;;
21168;SDS011;10742;51.816;8.662;2023-03-01T07:07:08;18.30;;;5.47;;
21168;SDS011;10742;51.816;8.662;2023-03-01T07:10:10;15.63;;;5.40;;
21168;SDS011;10742;51.816;8.662;2023-03-01T07:13:17;12.27;;;4.77;;
21168;SDS011;10742;51.816;8.662;2023-03-01T07:16:20;16.87;;;5.20;;
21168;SDS011;10742;51.816;8.662;2023-03-01T07:19:23;15.73;;;6.00;;
21168;SDS011;10742;51.816;8.662;2023-03-01T07:22:26;15.13;;;6.20;;
21168;SDS011;10742;51.816;8.662;2023-03-01T07:25:38;23.77;;;7.20;;
21168;SDS011;10742;51.816;8.662;2023-03-01T07:28:41;24.00;;;7.27;;
21168;SDS011;10742;51.816;8.662;2023-03-01T07:31:44;20.43;;;6.80;;
21168;SDS011;10742;51.816;8.662;2023-03-01T07:35:06;16.73;;;6.00;;
21168;SDS011;10742;51.816;8.662;2023-03-01T07:38:29;15.37;;;5.60;;
21168;SDS011;10742;51.816;8.662;2023-03-01T07:41:51;15.03;;;6.23;;
21168;SDS011;10742;51.816;8.662;2023-03-01T07:44:57;17.57;;;5.97;;
21168;SDS011;10742;51.816;8.662;2023-03-01T07:48:01;16.07;;;5.50;;
21168;SDS011;10742;51.816;8.662;2023-03-01T07:51:04;14.80;;;5.93;;
21168;SDS011;10742;51.816;8.662;2023-03-01T07:54:10;14.07;;;5.80;;
21168;SDS011;10742;51.816;8.662;2023-03-01T07:57:13;14.83;;;5.53;;
21168;SDS011;10742;51.816;8.662;2023-03-01T08:00:16;16.23;;;6.43;;
21168;SDS011;10742;51.816;8.662;2023-03-01T08:03:19;15.80;;;6.07;;
21168;SDS011;10742;51.816;8.662;2023-03-01T08:06:22;14.43;;;5.77;;
21168;SDS011;10742;51.816;8.662;2023-03-01T08:09:24;18.13;;;6.13;;
21168;SDS011;10742;51.816;8.662;2023-03-01T08:12:31;15.63;;;5.73;;
21168;SDS011;10742;51.816;8.662;2023-03-01T08:15:33;15.37;;;5.53;;
21168;SDS011;10742;51.816;8.662;2023-03-01T08:18:35;16.27;;;5.90;;
21168;SDS011;10742;51.816;8.662;2023-03-01T08:21:37;15.87;;;5.77;;
21168;SDS011;10742;51.816;8.662;2023-03-01T08:24:40;13.27;;;5.53;;
21168;SDS011;10742;51.816;8.662;2023-03-01T08:27:42;14.90;;;5.57;;
21168;SDS011;10742;51.816;8.662;2023-03-01T08:30:45;14.57;;;5.20;;
21168;SDS011;10742;51.816;8.662;2023-03-01T08:33:47;13.70;;;5.70;;
21168;SDS011;10742;51.816;8.662;2023-03-01T08:36:53;14.23;;;5.40;;
21168;SDS011;10742;51.816;8.662;2023-03-01T08:39:56;14.23;;;5.37;;
21168;SDS011;10742;51.816;8.662;2023-03-01T08:42:59;14.57;;;5.33;;
21168;SDS011;10742;51.816;8.662;2023-03-01T08:46:05;17.37;;;5.47;;
21168;SDS011;10742;51.816;8.662;2023-03-01T08:49:09;13.80;;;5.47;;
21168;SDS011;10742;51.816;8.662;2023-03-01T08:52:14;15.03;;;5.00;;
21168;SDS011;10742;51.816;8.662;2023-03-01T08:55:18;15.67;;;5.17;;
21168;SDS011;10742;51.816;8.662;2023-03-01T08:58:22;11.50;;;4.70;;
21168;SDS011;10742;51.816;8.662;2023-03-01T09:01:33;13.27;;;4.40;;
21168;SDS011;10742;51.816;8.662;2023-03-01T09:04:36;15.73;;;4.80;;
21168;SDS011;10742;51.816;8.662;2023-03-01T09:07:39;14.30;;;4.87;;
21168;SDS011;10742;51.816;8.662;2023-03-01T09:10:46;12.10;;;4.70;;
21168;SDS011;10742;51.816;8.662;2023-03-01T09:13:52;11.30;;;4.70;;
21168;SDS011;10742;51.816;8.662;2023-03-01T09:17:17;13.93;;;4.87;;
21168;SDS011;10742;51.816;8.662;2023-03-01T09:20:43;16.27;;;5.37;;
21168;SDS011;10742;51.816;8.662;2023-03-01T09:24:14;12.80;;;4.80;;
21168;SDS011;10742;51.816;8.662;2023-03-01T09:28:00;12.43;;;4.97;;
21168;SDS011;10742;51.816;8.662;2023-03-01T09:31:31;13.07;;;4.87;;
21168;SDS011;10742;51.816;8.662;2023-03-01T09:34:34;15.30;;;5.10;;
21168;SDS011;10742;51.816;8.662;2023-03-01T09:37:59;10.63;;;4.37;;
21168;SDS011;10742;51.816;8.662;2023-03-01T09:41:01;15.10;;;4.93;;
21168;SDS011;10742;51.816;8.662;2023-03-01T09:44:27;12.60;;;5.00;;
21168;SDS011;10742;51.816;8.662;2023-03-01T09:47:33;11.67;;;4.60;;
21168;SDS011;10742;51.816;8.662;2023-03-01T09:50:48;11.20;;;4.87;;
21168;SDS011;10742;51.816;8.662;2023-03-01T09:53:52;11.63;;;4.40;;
21168;SDS011;10742;51.816;8.662;2023-03-01T10:00:18;15.50;;;4.80;;
21168;SDS011;10742;51.816;8.662;2023-03-01T10:03:35;9.67;;;4.30;;
21168;SDS011;10742;51.816;8.662;2023-03-01T10:06:57;9.87;;;4.40;;
21168;SDS011;10742;51.816;8.662;2023-03-01T10:10:26;11.43;;;4.57;;
21168;SDS011;10742;51.816;8.662;2023-03-01T10:14:15;12.67;;;4.57;;
21168;SDS011;10742;51.816;8.662;2023-03-01T10:17:33;14.03;;;5.10;;
21168;SDS011;10742;51.816;8.662;2023-03-01T10:20:50;11.70;;;4.63;;
21168;SDS011;10742;51.816;8.662;2023-03-01T10:23:55;12.43;;;4.40;;
21168;SDS011;10742;51.816;8.662;2023-03-01T10:27:09;11.43;;;4.30;;
21168;SDS011;10742;51.816;8.662;2023-03-01T10:30:29;12.30;;;4.23;;
21168;SDS011;10742;51.816;8.662;2023-03-01T10:33:35;11.03;;;4.33;;
21168;SDS011;10742;51.816;8.662;2023-03-01T10:36:41;11.67;;;4.87;;
21168;SDS011;10742;51.816;8.662;2023-03-01T10:39:55;10.03;;;4.63;;
21168;SDS011;10742;51.816;8.662;2023-03-01T10:43:04;8.97;;;4.17;;
21168;SDS011;10742;51.816;8.662;2023-03-01T10:46:32;15.63;;;5.10;;
21168;SDS011;10742;51.816;8.662;2023-03-01T10:49:35;11.93;;;4.37;;
21168;SDS011;10742;51.816;8.662;2023-03-01T10:52:39;9.33;;;4.30;;
21168;SDS011;10742;51.816;8.662;2023-03-01T10:55:43;8.10;;;4.10;;
21168;SDS011;10742;51.816;8.662;2023-03-01T10:59:00;10.97;;;4.50;;
21168;SDS011;10742;51.816;8.662;2023-03-01T11:05:31;10.00;;;4.00;;
21168;SDS011;10742;51.816;8.662;2023-03-01T11:08:40;13.87;;;5.07;;
21168;SDS011;10742;51.816;8.662;2023-03-01T11:11:45;12.63;;;4.50;;
21168;SDS011;10742;51.816;8.662;2023-03-01T11:14:48;12.40;;;4.97;;
21168;SDS011;10742;51.816;8.662;2023-03-01T11:17:59;10.43;;;4.57;;
21168;SDS011;10742;51.816;8.662;2023-03-01T11:24:54;13.43;;;4.30;;
21168;SDS011;10742;51.816;8.662;2023-03-01T11:28:12;11.80;;;4.43;;
21168;SDS011;10742;51.816;8.662;2023-03-01T11:31:18;9.30;;;4.57;;
21168;SDS011;10742;51.816;8.662;2023-03-01T11:34:38;10.33;;;4.57;;
21168;SDS011;10742;51.816;8.662;2023-03-01T11:38:32;13.07;;;4.43;;
21168;SDS011;10742;51.816;8.662;2023-03-01T11:41:15;13.10;;;5.13;;
21168;SDS011;10742;51.816;8.662;2023-03-01T11:44:25;9.93;;;4.40;;
21168;SDS011;10742;51.816;8.662;2023-03-01T11:47:54;12.47;;;4.73;;
21168;SDS011;10742;51.816;8.662;2023-03-01T11:51:10;12.43;;;5.13;;
21168;SDS011;10742;51.816;8.662;2023-03-01T12:08:06;9.47;;;4.60;;
21168;SDS011;10742;51.816;8.662;2023-03-01T12:11:36;9.07;;;4.33;;
21168;SDS011;10742;51.816;8.662;2023-03-01T12:14:51;10.67;;;4.97;;
21168;SDS011;10742;51.816;8.662;2023-03-01T12:21:42;10.73;;;4.40;;
21168;SDS011;10742;51.816;8.662;2023-03-01T12:29:00;11.47;;;4.47;;
21168;SDS011;10742;51.816;8.662;2023-03-01T12:49:48;9.87;;;4.10;;
21168;SDS011;10742;51.816;8.662;2023-03-01T12:53:07;10.03;;;4.03;;
21168;SDS011;10742;51.816;8.662;2023-03-01T12:56:29;11.63;;;4.40;;
21168;SDS011;10742;51.816;8.662;2023-03-01T13:06:15;12.30;;;4.33;;
21168;SDS011;10742;51.816;8.662;2023-03-01T13:19:54;11.73;;;4.13;;
21168;SDS011;10742;51.816;8.662;2023-03-01T13:23:01;10.23;;;3.60;;
21168;SDS011;10742;51.816;8.662;2023-03-01T13:29:25;8.00;;;3.70;;
21168;SDS011;10742;51.816;8.662;2023-03-01T13:32:29;7.40;;;3.30;;
21168;SDS011;10742;51.816;8.662;2023-03-01T13:35:55;8.00;;;3.80;;
21168;SDS011;10742;51.816;8.662;2023-03-01T13:39:00;8.40;;;3.63;;
21168;SDS011;10742;51.816;8.662;2023-03-01T13:42:27;9.43;;;3.53;;
21168;SDS011;10742;51.816;8.662;2023-03-01T13:45:39;10.07;;;3.90;;
21168;SDS011;10742;51.816;8.662;2023-03-01T13:48:42;11.00;;;4.27;;
21168;SDS011;10742;51.816;8.662;2023-03-01T13:51:47;8.50;;;3.90;;
21168;SDS011;10742;51.816;8.662;2023-03-01T13:54:51;8.30;;;3.97;;
21168;SDS011;10742;51.816;8.662;2023-03-01T13:57:57;11.03;;;4.10;;
21168;SDS011;10742;51.816;8.662;2023-03-01T14:01:06;9.97;;;3.70;;
21168;SDS011;10742;51.816;8.662;2023-03-01T14:04:24;10.67;;;3.77;;
21168;SDS011;10742;51.816;8.662;2023-03-01T14:07:37;9.03;;;3.60;;
21168;SDS011;10742;51.816;8.662;2023-03-01T14:21:01;9.17;;;3.97;;
21168;SDS011;10742;51.816;8.662;2023-03-01T14:24:44;11.67;;;4.00;;
21168;SDS011;10742;51.816;8.662;2023-03-01T14:27:41;10.70;;;3.67;;
21168;SDS011;10742;51.816;8.662;2023-03-01T14:30:46;10.03;;;3.97;;
21168;SDS011;10742;51.816;8.662;2023-03-01T14:33:55;9.17;;;4.10;;
21168;SDS011;10742;51.816;8.662;2023-03-01T14:37:16;11.57;;;4.60;;
21168;SDS011;10742;51.816;8.662;2023-03-01T14:40:37;10.70;;;4.50;;
21168;SDS011;10742;51.816;8.662;2023-03-01T14:43:44;15.57;;;5.10;;
21168;SDS011;10742;51.816;8.662;2023-03-01T14:47:00;13.67;;;5.20;;
21168;SDS011;10742;51.816;8.662;2023-03-01T14:50:05;13.00;;;4.57;;
21168;SDS011;10742;51.816;8.662;2023-03-01T14:53:25;9.23;;;4.27;;
21168;SDS011;10742;51.816;8.662;2023-03-01T14:56:37;8.97;;;4.20;;
21168;SDS011;10742;51.816;8.662;2023-03-01T14:59:54;11.20;;;4.30;;
21168;SDS011;10742;51.816;8.662;2023-03-01T15:03:13;10.67;;;4.60;;
21168;SDS011;10742;51.816;8.662;2023-03-01T15:06:24;13.60;;;4.90;;
21168;SDS011;10742;51.816;8.662;2023-03-01T15:09:27;11.83;;;4.87;;
21168;SDS011;10742;51.816;8.662;2023-03-01T15:12:37;12.10;;;4.63;;
21168;SDS011;10742;51.816;8.662;2023-03-01T15:15:45;11.40;;;4.60;;
21168;SDS011;10742;51.816;8.662;2023-03-01T15:18:53;11.90;;;4.80;;
21168;SDS011;10742;51.816;8.662;2023-03-01T15:21:58;11.40;;;4.70;;
21168;SDS011;10742;51.816;8.662;2023-03-01T15:25:01;12.43;;;4.80;;
21168;SDS011;10742;51.816;8.662;2023-03-01T15:28:03;11.37;;;4.63;;
21168;SDS011;10742;51.816;8.662;2023-03-01T15:34:10;13.03;;;4.33;;
21168;SDS011;10742;51.816;8.662;2023-03-01T15:37:35;8.47;;;3.97;;
21168;SDS011;10742;51.816;8.662;2023-03-01T15:40:50;14.37;;;5.07;;
21168;SDS011;10742;51.816;8.662;2023-03-01T15:43:53;10.27;;;4.80;;
21168;SDS011;10742;51.816;8.662;2023-03-01T15:46:57;13.93;;;4.93;;
21168;SDS011;10742;51.816;8.662;2023-03-01T15:50:00;12.30;;;4.67;;
21168;SDS011;10742;51.816;8.662;2023-03-01T15:53:05;11.83;;;4.73;;
21168;SDS011;10742;51.816;8.662;2023-03-01T15:56:10;11.87;;;4.53;;
21168;SDS011;10742;51.816;8.662;2023-03-01T15:59:14;13.03;;;4.73;;
21168;SDS011;10742;51.816;8.662;2023-03-01T16:02:17;20.77;;;8.03;;
21168;SDS011;10742;51.816;8.662;2023-03-01T16:05:32;19.93;;;7.63;;
21168;SDS011;10742;51.816;8.662;2023-03-01T16:08:37;14.93;;;5.57;;
21168;SDS011;10742;51.816;8.662;2023-03-01T16:11:40;9.03;;;4.53;;
21168;SDS011;10742;51.816;8.662;2023-03-01T16:14:44;10.20;;;4.23;;
21168;SDS011;10742;51.816;8.662;2023-03-01T16:17:47;10.17;;;4.20;;
21168;SDS011;10742;51.816;8.662;2023-03-01T16:20:55;14.17;;;5.50;;
21168;SDS011;10742;51.816;8.662;2023-03-01T16:23:58;13.97;;;4.87;;
21168;SDS011;10742;51.816;8.662;2023-03-01T16:27:00;12.63;;;5.33;;
21168;SDS011;10742;51.816;8.662;2023-03-01T16:30:05;11.67;;;5.03;;
21168;SDS011;10742;51.816;8.662;2023-03-01T16:33:08;12.90;;;4.10;;
21168;SDS011;10742;51.816;8.662;2023-03-01T16:36:25;9.63;;;3.83;;
21168;SDS011;10742;51.816;8.662;2023-03-01T16:39:30;11.40;;;4.63;;
21168;SDS011;10742;51.816;8.662;2023-03-01T16:42:35;12.63;;;4.30;;
21168;SDS011;10742;51.816;8.662;2023-03-01T16:45:42;11.37;;;3.83;;
21168;SDS011;10742;51.816;8.662;2023-03-01T16:48:49;10.77;;;3.80;;
21168;SDS011;10742;51.816;8.662;2023-03-01T16:51:54;11.40;;;4.20;;
21168;SDS011;10742;51.816;8.662;2023-03-01T16:55:06;10.60;;;4.00;;
21168;SDS011;10742;51.816;8.662;2023-03-01T16:58:19;8.67;;;3.87;;
21168;SDS011;10742;51.816;8.662;2023-03-01T17:01:22;10.10;;;3.83;;
21168;SDS011;10742;51.816;8.662;2023-03-01T17:04:26;12.70;;;4.10;;
21168;SDS011;10742;51.816;8.662;2023-03-01T17:07:32;11.30;;;4.43;;
21168;SDS011;10742;51.816;8.662;2023-03-01T17:10:37;8.27;;;3.90;;
21168;SDS011;10742;51.816;8.662;2023-03-01T17:13:40;9.70;;;3.80;;
21168;SDS011;10742;51.816;8.662;2023-03-01T17:16:47;10.07;;;4.00;;
21168;SDS011;10742;51.816;8.662;2023-03-01T17:20:07;10.43;;;4.20;;
21168;SDS011;10742;51.816;8.662;2023-03-01T17:23:10;12.80;;;5.17;;
21168;SDS011;10742;51.816;8.662;2023-03-01T17:26:15;15.83;;;5.20;;
21168;SDS011;10742;51.816;8.662;2023-03-01T17:29:20;14.97;;;5.13;;
21168;SDS011;10742;51.816;8.662;2023-03-01T17:32:23;14.73;;;4.80;;
21168;SDS011;10742;51.816;8.662;2023-03-01T17:35:25;12.63;;;4.40;;
21168;SDS011;10742;51.816;8.662;2023-03-01T17:38:28;12.53;;;4.77;;
21168;SDS011;10742;51.816;8.662;2023-03-01T17:41:40;9.70;;;4.03;;
21168;SDS011;10742;51.816;8.662;2023-03-01T17:44:49;10.27;;;4.30;;
21168;SDS011;10742;51.816;8.662;2023-03-01T17:47:55;9.27;;;3.80;;
21168;SDS011;10742;51.816;8.662;2023-03-01T17:50:58;10.70;;;3.93;;
21168;SDS011;10742;51.816;8.662;2023-03-01T17:54:00;10.50;;;3.67;;
21168;SDS011;10742;51.816;8.662;2023-03-01T17:57:03;12.70;;;4.07;;
21168;SDS011;10742;51.816;8.662;2023-03-01T18:00:08;9.27;;;3.50;;
21168;SDS011;10742;51.816;8.662;2023-03-01T18:03:13;11.23;;;4.17;;
21168;SDS011;10742;51.816;8.662;2023-03-01T18:06:23;12.13;;;3.70;;
21168;SDS011;10742;51.816;8.662;2023-03-01T18:09:27;14.43;;;5.15;;
21168;SDS011;10742;51.816;8.662;2023-03-01T18:12:30;11.97;;;4.40;;
21168;SDS011;10742;51.816;8.662;2023-03-01T18:15:46;12.20;;;3.93;;
21168;SDS011;10742;51.816;8.662;2023-03-01T18:18:51;10.47;;;4.00;;
21168;SDS011;10742;51.816;8.662;2023-03-01T18:21:55;10.27;;;3.90;;
21168;SDS011;10742;51.816;8.662;2023-03-01T18:24:57;11.67;;;4.13;;
21168;SDS011;10742;51.816;8.662;2023-03-01T18:28:03;11.87;;;4.33;;
21168;SDS011;10742;51.816;8.662;2023-03-01T18:31:06;10.27;;;4.17;;
21168;SDS011;10742;51.816;8.662;2023-03-01T18:34:12;12.33;;;4.80;;
21168;SDS011;10742;51.816;8.662;2023-03-01T18:37:14;10.27;;;3.97;;
21168;SDS011;10742;51.816;8.662;2023-03-01T18:40:27;11.00;;;4.20;;
21168;SDS011;10742;51.816;8.662;2023-03-01T18:43:30;10.77;;;4.10;;
21168;SDS011;10742;51.816;8.662;2023-03-01T18:46:33;15.03;;;3.90;;
21168;SDS011;10742;51.816;8.662;2023-03-01T18:49:38;10.17;;;4.10;;
21168;SDS011;10742;51.816;8.662;2023-03-01T18:52:41;10.03;;;4.13;;
21168;SDS011;10742;51.816;8.662;2023-03-01T18:55:45;12.63;;;4.60;;
21168;SDS011;10742;51.816;8.662;2023-03-01T18:58:48;13.30;;;4.57;;
21168;SDS011;10742;51.816;8.662;2023-03-01T19:01:53;10.83;;;4.30;;
21168;SDS011;10742;51.816;8.662;2023-03-01T19:04:55;11.63;;;4.20;;
21168;SDS011;10742;51.816;8.662;2023-03-01T19:07:58;10.83;;;4.37;;
21168;SDS011;10742;51.816;8.662;2023-03-01T19:11:03;14.47;;;4.63;;
21168;SDS011;10742;51.816;8.662;2023-03-01T19:14:08;9.73;;;3.77;;
21168;SDS011;10742;51.816;8.662;2023-03-01T19:17:14;12.23;;;4.10;;
21168;SDS011;10742;51.816;8.662;2023-03-01T19:20:22;12.50;;;4.30;;
21168;SDS011;10742;51.816;8.662;2023-03-01T19:23:24;11.97;;;4.83;;
21168;SDS011;10742;51.816;8.662;2023-03-01T19:26:27;14.83;;;4.60;;
21168;SDS011;10742;51.816;8.662;2023-03-01T19:29:32;11.90;;;4.70;;
21168;SDS011;10742;51.816;8.662;2023-03-01T19:32:36;16.00;;;5.13;;
21168;SDS011;10742;51.816;8.662;2023-03-01T19:35:40;12.43;;;4.73;;
21168;SDS011;10742;51.816;8.662;2023-03-01T19:38:45;11.47;;;4.53;;
21168;SDS011;10742;51.816;8.662;2023-03-01T19:41:47;13.27;;;4.90;;
21168;SDS011;10742;51.816;8.662;2023-03-01T19:44:51;15.33;;;5.60;;
21168;SDS011;10742;51.816;8.662;2023-03-01T19:47:56;16.57;;;5.40;;
21168;SDS011;10742;51.816;8.662;2023-03-01T19:50:59;15.00;;;5.10;;
21168;SDS011;10742;51.816;8.662;2023-03-01T19:54:02;14.10;;;4.90;;
21168;SDS011;10742;51.816;8.662;2023-03-01T19:57:06;16.50;;;5.23;;
21168;SDS011;10742;51.816;8.662;2023-03-01T20:00:09;14.47;;;5.07;;
21168;SDS011;10742;51.816;8.662;2023-03-01T20:03:15;17.00;;;4.83;;
21168;SDS011;10742;51.816;8.662;2023-03-01T20:06:17;13.17;;;4.90;;
21168;SDS011;10742;51.816;8.662;2023-03-01T20:09:22;11.73;;;4.50;;
21168;SDS011;10742;51.816;8.662;2023-03-01T20:12:24;15.17;;;4.53;;
21168;SDS011;10742;51.816;8.662;2023-03-01T20:15:26;16.53;;;4.70;;
21168;SDS011;10742;51.816;8.662;2023-03-01T20:18:30;14.23;;;4.80;;